AirNav   Phillips 66 Aviation Fuel
 
 937 users online  

43NC Bahnson Gliderport
Mocksville, North Carolina, USA

GOING TO MOCKSVILLE?


FAA INFORMATION EFFECTIVE 01 FEBRUARY 2018

Location

FAA Identifier: 43NC
Lat/Long: 36-01-15.0000N / 080-30-59.0000W
36-01.250000N / 080-30.983333W
36.0208333 / -80.5163889
(estimated)
Elevation: 810 ft. / 247 m (estimated)
Variation: 07W (1995)
From city: 7 miles NE of MOCKSVILLE, NC
Time zone: UTC -5 (UTC -4 during Daylight Saving Time)
Zip code: 27028

Gliderport Operations

Gliderport use: Private use. Permission required prior to landing
Activation date: 01/2000
Control tower: no
ARTCC: ATLANTA CENTER
FSS: RALEIGH FLIGHT SERVICE STATION
Attendance: UNATNDD
Wind indicator: yes
Segmented circle: yes

Gliderport Communications

WX ASOS at INT (16 nm NE): PHONE 336-661-3096
WX AWOS-3 at EXX (18 nm SE): 119.825 (336-956-2967)

Nearby radio navigation aids

VOR radial/distance  VOR name  Freq  Var
GSOr270/26.2GREENSBORO VORTAC116.2003W
BZMr081/36.3BARRETTS MOUNTAIN VOR/DME110.8006W

 
NDB name  Hdg/Dist  Freq  Var  ID
ZEPHYR158/20.132608WZEF --.. . ..-.

Gliderport Services

Runway Information

Runway 1/19

Dimensions: 3000 x 100 ft. / 914 x 30 m
Surface: turf
RUNWAY 1  RUNWAY 19
Traffic pattern: leftright

Gliderport Ownership and Management from official FAA records

Ownership: Privately-owned
Owner: BERT BAHNSON
2078 HIWAY 801N
MOCKSVILLE, NC 27028
Phone 336-998-3160
Manager: BERT BAHNSON
2078 HIWAY 801N
MOCKSVILLE, NC 27028
Phone 336-998-3160

Gliderport Operational Statistics

Aircraft based on the field: 20
Single engine airplanes: 4
Gliders airplanes: 15
Ultralights: 1
    

Instrument Procedures

There are no published instrument procedures at 43NC.

Some nearby airports with instrument procedures:

8A7 - Twin Lakes Airport (7 nm SE)
KINT - Smith Reynolds Airport (16 nm NE)
KEXX - Davidson County Airport (18 nm SE)
KZEF - Elkin Municipal Airport (20 nm NW)
KRUQ - Mid-Carolina Regional Airport (22 nm S)
 
Loc | Ops | Rwys | IFR | FBO | Links
Com | Nav | Svcs | Stats | Notes

AirNav Hotels Sweepstakes
 
Area around 43NC (Bahnson Gliderport)
 
Road maps at: MapQuest Bing Google
 
Aerial photo
WARNING: Photo may not be current or correct
Aerial photo of 43NC (Bahnson Gliderport)
Do you have a better or more recent aerial photo of Bahnson Gliderport that you would like to share? If so, please send us your photo.

 
Sectional chart

 
Airport distance calculator
Flying to Bahnson Gliderport? Find the distance to fly.

From to 43NC

Sunrise and sunset
Times for 25-Feb-2018
 Local
(UTC-5)
 Zulu
(UTC)
Morning civil twilight06:3311:33
Sunrise06:5911:59
Sunset18:1223:12
Evening civil twilight18:3823:38

Current date and time
Zulu (UTC)  25-Feb-2018 14:45:03
Local (UTC-5)  25-Feb-2018 09:45:03
 
METAR
KINT 
16nm NE 
251419Z 22006KT 5SM -RA BR SCT018 SCT049 OVC060 17/15 A3008 RMK AO2 RAB01 P0001 T01720150
KEXX 
18nm SE 
251435Z AUTO 28003KT 10SM OVC024 19/16 A3008 RMK AO2 T01860155
KRUQ 
22nm S 
251435Z AUTO 30004KT 10SM 19/15 A3008 RMK AO2 T01850148
KSVH 
27nm SW 
251435Z AUTO 19003KT 5SM +RA BKN015 OVC060 A3007 RMK AO2
KMWK 
27nm N 
251435Z AUTO 20004KT 10SM -DZ SCT008 SCT017 SCT043 17/15 A3009 RMK AO2 T01650145
KGSO 
28nm E 
251419Z 26011KT 10SM BKN025 OVC090 18/15 A3007 RMK AO2 T01830150
KUKF 
31nm NW 
251430Z AUTO 00000KT 10SM -DZ SCT046 SCT060 OVC090 15/15 A3012 RMK AO2 P0001
TAF
KINT 
16nm NE 
251402Z 2514/2612 27009G14KT P6SM VCSH OVC015 TEMPO 2515/2519 4SM -SHRA OVC025 FM251900 23008KT P6SM VCSH OVC070 FM261000 VRB03KT 4SM -SHRA OVC025
NOTAMs
Click for the latest NOTAMs
NOTAMs are issued by the DoD/FAA and will open in a separate window not controlled by AirNav.

 

 
 

Would you like to see your business listed on this page?

 If your business provides an interesting product or service to pilots, flight crews, aircraft, or users of the Bahnson Gliderport, you should consider listing it here.  To start the listing process, click on the button below
 
Add a business
 

Other Pages about Bahnson Gliderport

Update a link
 
Copyright © AirNav, LLC. All rights reserved. Privacy Policy  Contact